Airfield :
LOGIN :

Register | Disclaimer

   EN    FR    IT 

 










Legend :    VFR   Marginal VFR   IFR   Intensive IFR   Very Intensive IFR
Visi :
Ceiling :
>= 8 km
>= 3000ft
5 to 8 km
1000 to 3000 ft
1500m to 5 km
500 to 1000 ft
800 to 1500m
200 to 500 ft
< 800m
< 200 ft
Symbols :   Thunderstorms  Fog  Heavy snow  Heavy precipitations  Wind > 20 kt
SIGMETs :     Misc.  Thunderstorms  Icing  Turbulence  Mountain Waves  Volcanic Ashes






- Airport Elevation : 44 ft
- IATA code : SOU


EGHI - Southampton

CURRENT METAR :
  • 250920Z VRB03KT 9999 SCT010 BKN030 17/15 Q1017

EXPIRED METARs :
  • 250850Z VRB03KT 9999 FEW006 BKN026 16/15 Q1017
  • 250820Z 24005KT 210V280 4500 -RADZ BKN006 16/15 Q1017
  • 250750Z 24005KT 210V280 8000 -RADZ BKN007 16/15 Q1017
  • 250720Z 24004KT 210V270 7000 -RADZ BKN006 15/14 Q1017
  • 250650Z 23004KT 200V260 7000 -RADZ BKN006 15/14 Q1017

TAF TAF EGHI
Valid from the 25 at 09:00 until the 25 at 18:00 UTC


250758Z 2509/2518 24005KT 9999 SCT045
TEMPO 2509/2511 6000 -RADZ BKN007
ATIS : +44 23 8062 7103



MET'MAP, your aeronautical weather chart ! - Copyright ORBIFLY December 2007 - Disclaimer

ORBIFLY MET'MAP TEAM :

Programming & Development : Alexandra Zaïnal
Concept & original design : Baudouin d'Aumeries
Assistance for programming : Marc-Olivier Méhu
Technical & hardware support : Manuel Goepfert

Contact : metmap@orbifly.com




SOURCES & CREDITS :

   NOAA